createdAt,value
2023-11-24T00:01:08.522Z,3.70
2023-11-24T00:03:40.551Z,3.20
2023-11-24T00:06:08.918Z,7.00
2023-11-24T00:08:37.619Z,6.50
2023-11-24T00:11:06.209Z,7.80
2023-11-24T00:13:34.155Z,7.80
2023-11-24T00:16:02.811Z,6.20
2023-11-24T00:18:31.700Z,8.00
2023-11-24T00:21:07.613Z,6.80
2023-11-24T00:23:35.856Z,7.50
2023-11-24T00:26:08.127Z,5.80
2023-11-24T00:28:40.680Z,3.90
2023-11-24T00:31:09.389Z,3.10
2023-11-24T00:33:37.737Z,3.30
2023-11-24T00:36:09.118Z,3.80
2023-11-24T00:38:37.300Z,4.70
2023-11-24T00:41:09.652Z,4.80
2023-11-24T00:43:38.164Z,3.90
2023-11-24T00:46:07.582Z,3.20
2023-11-24T00:48:36.837Z,3.30
2023-11-24T00:51:08.488Z,2.70
2023-11-24T00:53:36.520Z,2.50
2023-11-24T00:56:05.130Z,2.50
2023-11-24T00:58:33.111Z,2.80
2023-11-24T01:01:01.931Z,3.60
2023-11-24T01:03:30.275Z,3.00
2023-11-24T01:05:59.412Z,2.90
2023-11-24T01:08:27.547Z,4.70
2023-11-24T01:10:57.821Z,2.90
2023-11-24T01:13:26.123Z,4.00
2023-11-24T01:15:54.104Z,3.20
2023-11-24T01:18:22.735Z,2.70
2023-11-24T01:20:50.788Z,3.30
2023-11-24T01:23:18.967Z,2.30
2023-11-24T01:25:48.170Z,2.20
2023-11-24T01:28:16.417Z,2.80
2023-11-24T01:30:44.743Z,3.50
2023-11-24T01:33:13.019Z,4.10
2023-11-24T01:35:41.762Z,3.30
2023-11-24T01:38:10.989Z,4.10
2023-11-24T01:40:39.333Z,3.40
2023-11-24T01:43:08.012Z,4.60
2023-11-24T01:45:36.011Z,4.20
2023-11-24T01:48:04.517Z,3.70
2023-11-24T01:50:33.396Z,3.20
2023-11-24T01:53:01.629Z,4.80
2023-11-24T01:55:29.892Z,3.10
2023-11-24T01:57:58.473Z,3.10
2023-11-24T02:00:27.770Z,2.80
2023-11-24T02:02:59.130Z,2.30
2023-11-24T02:05:27.394Z,3.60
2023-11-24T02:07:56.039Z,3.00
2023-11-24T02:10:24.101Z,2.20
2023-11-24T02:12:52.894Z,2.70
2023-11-24T02:15:21.287Z,2.60
2023-11-24T02:17:49.421Z,3.80
2023-11-24T02:20:18.138Z,3.10
2023-11-24T02:22:46.255Z,2.50
2023-11-24T02:25:15.236Z,3.00
2023-11-24T02:27:43.551Z,3.00
2023-11-24T02:30:13.006Z,2.40
2023-11-24T02:32:41.299Z,2.70
2023-11-24T02:35:10.979Z,3.30
2023-11-24T02:37:39.383Z,2.20
2023-11-24T02:40:09.836Z,3.70
2023-11-24T02:42:37.963Z,3.00
2023-11-24T02:45:07.500Z,3.00
2023-11-24T02:47:35.926Z,2.10
2023-11-24T02:50:04.929Z,1.40
2023-11-24T02:52:33.027Z,3.10
2023-11-24T02:55:01.193Z,3.50
2023-11-24T02:57:29.339Z,3.50
2023-11-24T02:59:57.344Z,3.80
2023-11-24T03:02:25.453Z,5.20
2023-11-24T03:04:53.641Z,3.20
2023-11-24T03:07:21.869Z,3.50
2023-11-24T03:09:53.051Z,3.20
2023-11-24T03:12:22.710Z,3.60
2023-11-24T03:14:50.878Z,2.60
2023-11-24T03:17:18.792Z,3.30
2023-11-24T03:19:46.785Z,2.90
2023-11-24T03:22:15.730Z,4.20
2023-11-24T03:24:43.836Z,4.20
2023-11-24T03:27:11.953Z,5.40
2023-11-24T03:29:40.994Z,5.00
2023-11-24T03:32:08.943Z,5.40
2023-11-24T03:34:37.459Z,5.70
2023-11-24T03:37:05.824Z,5.40
2023-11-24T03:39:34.042Z,7.60
2023-11-24T03:42:02.219Z,6.70
2023-11-24T03:44:30.283Z,6.90
2023-11-24T03:46:58.787Z,6.70
2023-11-24T03:49:26.870Z,6.40
2023-11-24T03:51:54.839Z,6.40
2023-11-24T03:54:23.456Z,5.10
2023-11-24T03:56:51.634Z,8.20
2023-11-24T03:59:19.659Z,6.30
2023-11-24T04:01:47.704Z,4.60
2023-11-24T04:04:16.059Z,5.80
2023-11-24T04:06:44.591Z,6.70
2023-11-24T04:09:12.689Z,5.20
2023-11-24T04:11:40.799Z,5.20
2023-11-24T04:14:08.841Z,6.20
2023-11-24T04:16:37.713Z,4.60
2023-11-24T04:19:08.117Z,5.00
2023-11-24T04:21:37.424Z,7.00
2023-11-24T04:24:06.466Z,5.90
2023-11-24T04:26:35.582Z,6.00
2023-11-24T04:29:04.266Z,6.20
2023-11-24T04:31:32.244Z,5.30
2023-11-24T04:34:01.652Z,6.20
2023-11-24T04:36:30.234Z,3.60
2023-11-24T04:38:58.382Z,5.00
2023-11-24T04:41:26.438Z,5.50
2023-11-24T04:43:54.524Z,5.10
2023-11-24T04:46:23.379Z,4.20
2023-11-24T04:48:51.543Z,4.00
2023-11-24T04:51:19.793Z,2.70
2023-11-24T04:53:48.035Z,3.90
2023-11-24T04:56:16.103Z,2.50
2023-11-24T04:58:44.539Z,3.10
2023-11-24T05:01:13.102Z,3.50
2023-11-24T05:03:41.966Z,3.20
2023-11-24T05:06:10.022Z,3.20
2023-11-24T05:08:38.365Z,3.40
2023-11-24T05:11:09.480Z,2.20
2023-11-24T05:13:37.554Z,4.20
2023-11-24T05:16:06.563Z,5.00
2023-11-24T05:18:34.753Z,5.20
2023-11-24T05:21:02.763Z,3.90
2023-11-24T05:23:30.739Z,3.70
2023-11-24T05:25:58.836Z,5.10
2023-11-24T05:28:26.904Z,3.80
2023-11-24T05:30:55.492Z,5.30
2023-11-24T05:33:23.634Z,5.10
2023-11-24T05:35:51.688Z,5.00
2023-11-24T05:38:19.816Z,7.00
2023-11-24T05:40:47.828Z,5.20
2023-11-24T05:43:16.052Z,8.80
2023-11-24T05:45:44.327Z,7.90
2023-11-24T05:48:12.394Z,7.70
2023-11-24T05:50:40.385Z,7.90
2023-11-24T05:53:08.783Z,6.60
2023-11-24T05:55:36.872Z,7.60
2023-11-24T05:58:07.250Z,6.90
2023-11-24T06:00:35.526Z,5.00
2023-11-24T06:03:03.741Z,4.80
2023-11-24T06:05:31.951Z,3.80
2023-11-24T06:08:02.945Z,5.40
2023-11-24T06:10:30.926Z,2.50
2023-11-24T06:12:59.267Z,2.80
2023-11-24T06:15:27.437Z,1.80
2023-11-24T06:17:55.488Z,1.00
2023-11-24T06:20:25.402Z,1.70
2023-11-24T06:22:53.470Z,1.50
2023-11-24T06:25:21.656Z,1.80
2023-11-24T06:27:49.885Z,2.00
2023-11-24T06:30:18.490Z,1.30
2023-11-24T06:32:46.595Z,1.80
2023-11-24T06:35:16.969Z,2.50
2023-11-24T06:37:45.112Z,1.80
2023-11-24T06:40:13.469Z,1.70
2023-11-24T06:42:42.274Z,1.70
2023-11-24T06:45:14.042Z,1.30
2023-11-24T06:47:42.845Z,1.60
2023-11-24T06:50:13.550Z,1.20
2023-11-24T06:52:42.557Z,1.10
2023-11-24T06:55:14.338Z,1.10
2023-11-24T06:57:42.813Z,1.20
2023-11-24T07:00:17.918Z,2.00
2023-11-24T07:02:47.561Z,3.00
2023-11-24T07:05:19.397Z,3.00
2023-11-24T07:07:47.463Z,2.50
2023-11-24T07:10:16.083Z,3.50
2023-11-24T07:12:45.396Z,6.60
2023-11-24T07:15:14.301Z,4.50
2023-11-24T07:17:42.650Z,6.40
2023-11-24T07:20:12.837Z,15.00
2023-11-24T07:22:45.521Z,15.50
2023-11-24T07:25:16.466Z,12.60
2023-11-24T07:27:44.751Z,10.70
2023-11-24T07:30:13.334Z,9.60
2023-11-24T07:32:41.646Z,6.60
2023-11-24T07:35:12.033Z,6.80
2023-11-24T07:37:40.354Z,4.80
2023-11-24T07:40:15.717Z,3.30
2023-11-24T07:42:46.006Z,4.00
2023-11-24T07:45:14.532Z,3.60
2023-11-24T07:47:42.667Z,3.00
2023-11-24T07:50:11.089Z,5.10
2023-11-24T07:52:39.143Z,5.10
2023-11-24T07:55:07.549Z,10.20
2023-11-24T07:57:36.776Z,11.20
2023-11-24T08:00:05.592Z,9.90
2023-11-24T08:02:41.366Z,7.00
2023-11-24T08:05:10.077Z,5.10
2023-11-24T08:07:39.036Z,6.70
2023-11-24T08:10:08.128Z,8.20
2023-11-24T08:12:36.168Z,7.50
2023-11-24T08:15:04.445Z,6.90
2023-11-24T08:17:32.539Z,6.80
2023-11-24T08:20:00.728Z,6.40
2023-11-24T08:22:29.772Z,5.60
2023-11-24T08:24:57.915Z,6.40
2023-11-24T08:27:26.064Z,4.40
2023-11-24T08:29:54.232Z,5.60
2023-11-24T08:32:22.260Z,4.30
2023-11-24T08:34:50.503Z,4.50
2023-11-24T08:37:19.128Z,4.60
2023-11-24T08:39:47.253Z,4.30
2023-11-24T08:42:15.807Z,4.50
2023-11-24T08:44:43.791Z,6.10
2023-11-24T08:47:11.907Z,6.50
2023-11-24T08:49:40.393Z,7.10
2023-11-24T08:52:10.752Z,7.10
2023-11-24T08:54:39.570Z,9.50
2023-11-24T08:57:08.996Z,10.20
2023-11-24T08:59:37.636Z,9.40
2023-11-24T09:02:05.959Z,7.10
2023-11-24T09:04:34.172Z,7.10
2023-11-24T09:07:02.594Z,6.70
2023-11-24T09:09:30.573Z,7.50
2023-11-24T09:11:58.546Z,5.10
2023-11-24T09:14:26.603Z,6.70
2023-11-24T09:16:54.880Z,5.80
2023-11-24T09:19:23.185Z,8.10
2023-11-24T09:21:51.928Z,8.00
2023-11-24T09:24:20.088Z,10.70
2023-11-24T09:26:48.126Z,12.70
2023-11-24T09:29:16.226Z,9.10
2023-11-24T09:31:44.458Z,5.90
2023-11-24T09:34:13.334Z,6.60
2023-11-24T09:36:43.384Z,5.70
2023-11-24T09:39:11.376Z,5.60
2023-11-24T09:41:41.010Z,4.40
2023-11-24T09:44:11.447Z,4.90
2023-11-24T09:46:49.214Z,10.20
2023-11-24T09:49:21.581Z,8.40
2023-11-24T09:51:49.716Z,6.40
2023-11-24T09:54:19.405Z,7.10
2023-11-24T09:56:47.728Z,4.70
2023-11-24T09:59:15.902Z,5.60
2023-11-24T10:01:44.219Z,3.80
2023-11-24T10:04:14.067Z,5.10
2023-11-24T10:06:45.038Z,5.60
2023-11-24T10:09:23.108Z,3.70
2023-11-24T10:11:51.627Z,4.80
2023-11-24T10:14:22.965Z,3.50
2023-11-24T10:16:51.200Z,3.70
2023-11-24T10:19:22.877Z,4.10
2023-11-24T10:21:55.102Z,3.90
2023-11-24T10:24:26.655Z,4.70
2023-11-24T10:26:54.998Z,3.90
2023-11-24T10:29:28.453Z,3.90
2023-11-24T10:31:56.428Z,4.20
2023-11-24T10:34:25.951Z,4.10
2023-11-24T10:36:54.883Z,3.30
2023-11-24T10:39:26.892Z,2.40
2023-11-24T10:41:56.034Z,2.80
2023-11-24T10:44:26.490Z,2.60
2023-11-24T10:47:01.393Z,2.60
2023-11-24T10:49:35.971Z,2.20
2023-11-24T10:52:14.621Z,2.90
2023-11-24T10:54:51.603Z,2.70
2023-11-24T10:57:23.349Z,2.80
2023-11-24T10:59:51.948Z,3.20
2023-11-24T11:02:20.986Z,3.50
2023-11-24T11:05:18.876Z,2.70
2023-11-24T11:08:20.472Z,3.50
2023-11-24T11:11:03.242Z,3.00
2023-11-24T11:13:32.040Z,2.50
2023-11-24T11:16:00.135Z,2.40
2023-11-24T11:18:28.189Z,3.60
2023-11-24T11:20:56.191Z,2.20
2023-11-24T11:23:27.275Z,2.40
2023-11-24T11:25:55.539Z,2.70
2023-11-24T11:28:36.056Z,3.90
2023-11-24T11:31:24.133Z,2.60
2023-11-24T11:33:52.207Z,3.00
2023-11-24T11:36:23.581Z,2.90
2023-11-24T11:38:54.763Z,4.30
2023-11-24T11:41:46.443Z,2.60
2023-11-24T11:44:27.499Z,2.80
2023-11-24T11:47:23.075Z,3.00
2023-11-24T11:49:55.896Z,5.50
2023-11-24T11:52:27.643Z,6.20
2023-11-24T11:54:58.112Z,7.50
2023-11-24T11:57:26.598Z,4.90
2023-11-24T11:59:55.131Z,4.20
2023-11-24T12:02:24.789Z,5.10
2023-11-24T12:04:53.299Z,5.30
2023-11-24T12:07:21.990Z,4.80
2023-11-24T12:09:50.872Z,7.80
2023-11-24T12:12:21.051Z,7.50
2023-11-24T12:14:50.581Z,6.30
2023-11-24T12:17:18.961Z,5.70
2023-11-24T12:19:49.677Z,7.10
2023-11-24T12:22:19.710Z,7.00
2023-11-24T12:24:48.397Z,6.40
2023-11-24T12:27:16.606Z,6.80
2023-11-24T12:29:47.457Z,8.30
2023-11-24T12:32:15.904Z,6.50
2023-11-24T12:34:46.547Z,6.80
2023-11-24T12:37:15.362Z,7.90
2023-11-24T12:39:43.891Z,6.80
2023-11-24T12:42:12.368Z,7.40
2023-11-24T12:44:41.197Z,7.70
2023-11-24T12:47:16.043Z,6.20
2023-11-24T12:50:02.203Z,6.10
2023-11-24T12:52:32.723Z,6.20
2023-11-24T12:55:08.911Z,5.70
2023-11-24T12:57:41.410Z,9.30
2023-11-24T13:00:16.113Z,10.30
2023-11-24T13:02:46.428Z,9.20
2023-11-24T13:05:17.745Z,11.50
2023-11-24T13:07:46.532Z,11.40
2023-11-24T13:10:14.810Z,10.30
2023-11-24T13:12:43.312Z,7.40
2023-11-24T13:15:11.635Z,8.30
2023-11-24T13:17:40.182Z,8.80
2023-11-24T13:20:13.067Z,7.70
2023-11-24T13:22:43.578Z,8.60
2023-11-24T13:25:13.047Z,7.10
2023-11-24T13:27:43.062Z,11.10
2023-11-24T13:30:13.248Z,12.80
2023-11-24T13:32:43.025Z,8.80
2023-11-24T13:35:12.317Z,7.90
2023-11-24T13:37:40.847Z,7.00
2023-11-24T13:40:13.409Z,7.90
2023-11-24T13:42:41.730Z,9.40
2023-11-24T13:45:12.834Z,9.00
2023-11-24T13:47:42.560Z,10.30
2023-11-24T13:50:11.278Z,9.90
2023-11-24T13:52:39.383Z,8.70
2023-11-24T13:55:08.251Z,8.30
2023-11-24T13:57:37.191Z,7.50
2023-11-24T14:00:10.896Z,8.90
2023-11-24T14:02:39.281Z,7.50
2023-11-24T14:05:09.937Z,6.90
2023-11-24T14:07:38.058Z,7.30
2023-11-24T14:10:07.777Z,6.10
2023-11-24T14:12:36.659Z,7.70
2023-11-24T14:15:05.825Z,7.90
2023-11-24T14:17:37.176Z,9.70
2023-11-24T14:20:08.208Z,8.90
2023-11-24T14:22:37.590Z,9.10
2023-11-24T14:25:10.277Z,8.90
2023-11-24T14:27:41.594Z,8.60
2023-11-24T14:30:09.989Z,10.00
2023-11-24T14:32:38.164Z,8.00
2023-11-24T14:35:07.923Z,8.40
2023-11-24T14:37:36.219Z,8.30
2023-11-24T14:40:19.939Z,7.10
2023-11-24T14:42:51.240Z,6.50
2023-11-24T14:45:22.061Z,6.00
2023-11-24T14:47:51.548Z,6.10
2023-11-24T14:50:20.734Z,5.90
2023-11-24T14:52:49.012Z,5.90
2023-11-24T14:55:18.152Z,6.50
2023-11-24T14:57:46.740Z,8.20
2023-11-24T15:00:32.014Z,6.50
2023-11-24T15:03:09.366Z,7.50
2023-11-24T15:05:42.076Z,8.70
2023-11-24T15:08:15.477Z,8.30
2023-11-24T15:10:44.930Z,8.90
2023-11-24T15:13:22.921Z,9.30
2023-11-24T15:15:51.265Z,9.50
2023-11-24T15:18:21.651Z,10.00
2023-11-24T15:20:54.642Z,15.10
2023-11-24T15:23:25.082Z,13.90
2023-11-24T15:25:56.396Z,16.10
2023-11-24T15:28:25.162Z,12.90
2023-11-24T15:30:55.105Z,13.20
2023-11-24T15:33:23.584Z,12.90
2023-11-24T15:35:51.769Z,13.30
2023-11-24T15:38:21.845Z,10.50
2023-11-24T15:40:52.520Z,10.70
2023-11-24T15:43:25.455Z,11.90
2023-11-24T15:45:56.340Z,13.00
2023-11-24T15:48:26.553Z,11.90
2023-11-24T15:50:54.769Z,13.90
2023-11-24T15:53:23.355Z,13.40
2023-11-24T15:55:52.916Z,12.90
2023-11-24T15:58:26.566Z,14.30
2023-11-24T16:00:58.089Z,13.50
2023-11-24T16:03:26.697Z,13.40
2023-11-24T16:05:59.334Z,11.50
2023-11-24T16:08:34.586Z,12.60
2023-11-24T16:11:11.388Z,9.60
2023-11-24T16:13:42.770Z,10.80
2023-11-24T16:16:11.336Z,11.20
2023-11-24T16:18:41.825Z,10.30
2023-11-24T16:21:09.954Z,10.20
2023-11-24T16:23:37.949Z,10.00
2023-11-24T16:26:06.181Z,8.90
2023-11-24T16:28:35.077Z,9.30
2023-11-24T16:31:03.228Z,12.10
2023-11-24T16:33:34.454Z,12.30
2023-11-24T16:36:02.592Z,13.30
2023-11-24T16:38:31.896Z,14.00
2023-11-24T16:41:04.845Z,14.40
2023-11-24T16:43:33.095Z,13.10
2023-11-24T16:46:01.184Z,14.50
2023-11-24T16:48:29.172Z,13.60
2023-11-24T16:50:58.368Z,14.10
2023-11-24T16:53:26.350Z,12.30
2023-11-24T16:55:54.384Z,12.30
2023-11-24T16:58:22.655Z,24.10
2023-11-24T17:00:50.985Z,24.80
2023-11-24T17:03:19.225Z,24.80
2023-11-24T17:05:47.921Z,37.30
2023-11-24T17:08:15.986Z,36.30
2023-11-24T17:10:44.146Z,31.00
2023-11-24T17:13:12.332Z,32.80
2023-11-24T17:15:40.440Z,37.90
2023-11-24T17:18:10.704Z,37.30
2023-11-24T17:20:38.888Z,37.10
2023-11-24T17:23:07.074Z,33.30
2023-11-24T17:25:37.249Z,35.50
2023-11-24T17:28:06.572Z,33.00
2023-11-24T17:30:35.375Z,34.50
2023-11-24T17:33:03.689Z,31.70
2023-11-24T17:35:32.493Z,30.30
2023-11-24T17:38:00.700Z,29.40
2023-11-24T17:40:28.990Z,28.30
2023-11-24T17:42:57.324Z,28.00
2023-11-24T17:45:25.442Z,23.40
2023-11-24T17:47:53.687Z,19.10
2023-11-24T17:50:21.927Z,18.60
2023-11-24T17:52:50.659Z,12.70
2023-11-24T17:55:21.968Z,10.30
2023-11-24T17:57:50.628Z,11.10
2023-11-24T18:00:22.587Z,8.00
2023-11-24T18:02:51.118Z,8.00
2023-11-24T18:05:19.713Z,8.10
2023-11-24T18:07:47.899Z,7.40
2023-11-24T18:10:16.156Z,7.90
2023-11-24T18:12:44.800Z,7.20
2023-11-24T18:15:14.893Z,9.00
2023-11-24T18:17:43.452Z,7.60
2023-11-24T18:20:15.140Z,7.70
2023-11-24T18:22:43.701Z,8.40
2023-11-24T18:25:13.440Z,8.70
2023-11-24T18:27:41.574Z,9.20
2023-11-24T18:30:11.326Z,10.10
2023-11-24T18:32:40.675Z,12.00
2023-11-24T18:35:09.872Z,11.70
2023-11-24T18:37:39.130Z,9.70
2023-11-24T18:40:09.661Z,9.80
2023-11-24T18:42:37.841Z,11.40
2023-11-24T18:45:07.911Z,11.20
2023-11-24T18:47:36.224Z,9.80
2023-11-24T18:50:07.420Z,10.20
2023-11-24T18:52:36.119Z,12.00
2023-11-24T18:55:08.270Z,11.80
2023-11-24T18:57:36.478Z,11.70
2023-11-24T19:00:06.192Z,17.30
2023-11-24T19:02:36.215Z,14.90
2023-11-24T19:05:07.368Z,18.30
2023-11-24T19:07:35.810Z,19.00
2023-11-24T19:10:04.574Z,19.50
2023-11-24T19:12:32.612Z,18.10
2023-11-24T19:15:00.704Z,18.20
2023-11-24T19:17:28.868Z,17.90
2023-11-24T19:19:57.314Z,20.80
2023-11-24T19:22:25.367Z,23.50
2023-11-24T19:24:53.417Z,17.30
2023-11-24T19:27:21.475Z,18.00
2023-11-24T19:29:49.576Z,17.20
2023-11-24T19:32:17.998Z,14.20
2023-11-24T19:34:46.197Z,16.40
2023-11-24T19:37:14.412Z,14.50
2023-11-24T19:39:44.177Z,13.80
2023-11-24T19:42:12.163Z,13.10
2023-11-24T19:44:40.223Z,14.60
2023-11-24T19:47:10.584Z,11.10
2023-11-24T19:49:39.639Z,10.60
2023-11-24T19:52:07.961Z,10.30
2023-11-24T19:54:36.098Z,11.40
2023-11-24T19:57:05.432Z,13.90
2023-11-24T19:59:33.552Z,14.10
2023-11-24T20:02:04.221Z,14.50
2023-11-24T20:04:32.422Z,13.10
2023-11-24T20:07:00.757Z,13.60
2023-11-24T20:09:29.028Z,14.40
2023-11-24T20:11:57.352Z,17.40
2023-11-24T20:14:25.471Z,18.70
2023-11-24T20:16:53.551Z,17.40
2023-11-24T20:19:22.067Z,17.80
2023-11-24T20:21:50.289Z,16.50
2023-11-24T20:24:18.612Z,15.20
2023-11-24T20:26:46.736Z,13.70
2023-11-24T20:29:15.857Z,14.30
2023-11-24T20:31:44.615Z,12.30
2023-11-24T20:34:12.829Z,10.10
2023-11-24T20:36:40.971Z,9.50
2023-11-24T20:39:09.032Z,9.00
2023-11-24T20:41:41.154Z,8.40
2023-11-24T20:44:09.589Z,8.70
2023-11-24T20:46:38.263Z,9.40
2023-11-24T20:49:07.652Z,9.30
2023-11-24T20:51:35.835Z,9.60
2023-11-24T20:54:04.035Z,8.60
2023-11-24T20:56:32.279Z,8.50
2023-11-24T20:59:00.356Z,7.80
2023-11-24T21:01:29.018Z,7.10
2023-11-24T21:03:57.373Z,7.30
2023-11-24T21:06:25.387Z,8.20
2023-11-24T21:08:59.637Z,8.00
2023-11-24T21:11:28.998Z,9.00
2023-11-24T21:13:57.236Z,9.20
2023-11-24T21:16:27.045Z,10.30
2023-11-24T21:18:55.499Z,10.90
2023-11-24T21:21:23.867Z,15.30
2023-11-24T21:23:52.014Z,20.30
2023-11-24T21:26:21.570Z,15.50
2023-11-24T21:28:50.747Z,13.30
2023-11-24T21:31:20.396Z,12.00
2023-11-24T21:33:50.076Z,13.00
2023-11-24T21:36:18.325Z,11.60
2023-11-24T21:38:46.476Z,8.20
2023-11-24T21:41:20.771Z,8.00
2023-11-24T21:43:50.012Z,7.50
2023-11-24T21:46:24.118Z,8.70
2023-11-24T21:48:53.095Z,7.60
2023-11-24T21:51:21.169Z,7.00
2023-11-24T21:53:49.232Z,5.80
2023-11-24T21:56:31.580Z,3.30
2023-11-24T21:59:00.123Z,2.50
2023-11-24T22:01:28.612Z,3.10
2023-11-24T22:03:57.193Z,3.00
2023-11-24T22:06:29.721Z,3.80
2023-11-24T22:08:57.850Z,3.60
2023-11-24T22:11:25.839Z,3.60
2023-11-24T22:13:53.803Z,2.60
2023-11-24T22:16:22.326Z,2.90
2023-11-24T22:18:51.659Z,2.50
2023-11-24T22:21:21.304Z,2.30
2023-11-24T22:23:50.042Z,2.10
2023-11-24T22:26:23.211Z,4.40
2023-11-24T22:28:53.686Z,5.40
2023-11-24T22:31:21.894Z,5.10
2023-11-24T22:33:50.244Z,3.80
2023-11-24T22:36:20.732Z,3.80
2023-11-24T22:38:50.724Z,3.30
2023-11-24T22:41:22.338Z,3.40
2023-11-24T22:43:53.789Z,3.40
2023-11-24T22:46:24.166Z,3.60
2023-11-24T22:48:53.910Z,4.60
2023-11-24T22:51:24.113Z,3.70
2023-11-24T22:53:52.403Z,5.00
2023-11-24T22:56:25.271Z,6.70
2023-11-24T22:59:00.104Z,7.50
2023-11-24T23:01:28.883Z,6.40
2023-11-24T23:03:59.188Z,5.10
2023-11-24T23:06:29.469Z,5.40
2023-11-24T23:08:57.902Z,5.30
2023-11-24T23:11:27.344Z,5.50
2023-11-24T23:13:55.480Z,5.20
2023-11-24T23:16:26.863Z,4.00
2023-11-24T23:18:55.114Z,3.70
2023-11-24T23:21:24.168Z,4.60
2023-11-24T23:23:53.214Z,7.40
2023-11-24T23:26:22.806Z,14.90
2023-11-24T23:28:51.800Z,20.20
2023-11-24T23:31:20.353Z,19.00
2023-11-24T23:33:48.598Z,20.80
2023-11-24T23:36:17.256Z,17.30
2023-11-24T23:38:47.122Z,14.60
2023-11-24T23:41:15.522Z,9.80
2023-11-24T23:43:44.270Z,9.60
2023-11-24T23:46:12.731Z,10.90
2023-11-24T23:48:40.885Z,12.30
2023-11-24T23:51:08.921Z,12.70
2023-11-24T23:53:36.988Z,11.80
2023-11-24T23:56:06.963Z,11.90
2023-11-24T23:58:38.655Z,11.60
